createdAt,value
2018-11-13T00:00:13.896Z,27.70
2018-11-13T00:02:45.006Z,30.33
2018-11-13T00:05:16.135Z,31.03
2018-11-13T00:07:46.934Z,29.07
2018-11-13T00:10:23.078Z,26.27
2018-11-13T00:12:53.837Z,30.53
2018-11-13T00:15:24.746Z,29.63
2018-11-13T00:17:55.618Z,29.63
2018-11-13T00:20:26.382Z,29.43
2018-11-13T00:22:57.152Z,32.00
2018-11-13T00:25:28.338Z,35.13
2018-11-13T00:27:59.131Z,31.20
2018-11-13T00:30:29.881Z,29.13
2018-11-13T00:33:06.790Z,29.53
2018-11-13T00:35:38.041Z,28.27
2018-11-13T00:38:09.209Z,29.17
2018-11-13T00:40:40.016Z,26.40
2018-11-13T00:43:10.779Z,26.73
2018-11-13T00:45:42.892Z,28.80
2018-11-13T00:48:13.545Z,29.70
2018-11-13T00:50:44.630Z,31.83
2018-11-13T00:53:15.059Z,29.00
2018-11-13T00:55:45.912Z,27.03
2018-11-13T00:58:16.674Z,25.50
2018-11-13T01:00:47.770Z,24.30
2018-11-13T01:03:18.907Z,25.77
2018-11-13T01:05:56.209Z,27.90
2018-11-13T01:08:26.997Z,27.13
2018-11-13T01:10:57.694Z,28.73
2018-11-13T01:13:28.730Z,27.97
2018-11-13T01:15:59.125Z,29.27
2018-11-13T01:18:29.834Z,31.00
2018-11-13T01:21:01.115Z,32.00
2018-11-13T01:23:33.615Z,31.57
2018-11-13T01:26:08.050Z,30.70
2018-11-13T01:28:38.734Z,30.03
2018-11-13T01:31:09.901Z,28.50
2018-11-13T01:33:40.682Z,30.50
2018-11-13T01:36:11.547Z,31.53
2018-11-13T01:38:42.674Z,29.87
2018-11-13T01:41:13.384Z,30.07
2018-11-13T01:43:44.215Z,31.57
2018-11-13T01:46:15.058Z,29.80
2018-11-13T01:48:47.198Z,29.87
2018-11-13T01:51:17.922Z,28.90
2018-11-13T01:53:48.612Z,27.17
2018-11-13T01:56:19.320Z,26.07
2018-11-13T01:58:50.026Z,25.80
2018-11-13T02:01:21.040Z,29.10
2018-11-13T02:03:51.830Z,32.83
2018-11-13T02:06:22.557Z,34.47
2018-11-13T02:08:53.216Z,29.67
2018-11-13T02:11:24.555Z,32.77
2018-11-13T02:13:55.274Z,33.77
2018-11-13T02:16:25.922Z,33.63
2018-11-13T02:18:56.655Z,33.77
2018-11-13T02:21:27.862Z,38.97
2018-11-13T02:23:58.537Z,39.77
2018-11-13T02:26:29.437Z,48.67
2018-11-13T02:29:00.210Z,44.07
2018-11-13T02:31:32.533Z,43.47
2018-11-13T02:34:06.183Z,39.30
2018-11-13T02:36:37.265Z,39.43
2018-11-13T02:39:09.800Z,34.90
2018-11-13T02:41:41.689Z,32.80
2018-11-13T02:44:12.347Z,30.87
2018-11-13T02:46:43.035Z,32.30
2018-11-13T02:49:13.773Z,31.27
2018-11-13T02:51:44.549Z,32.00
2018-11-13T02:54:15.326Z,30.83
2018-11-13T02:56:46.034Z,30.20
2018-11-13T02:59:16.793Z,28.30
2018-11-13T03:01:47.454Z,29.57
2018-11-13T03:04:18.196Z,28.53
2018-11-13T03:06:48.894Z,32.13
2018-11-13T03:09:19.631Z,30.83
2018-11-13T03:11:50.415Z,29.83
2018-11-13T03:14:21.547Z,29.40
2018-11-13T03:16:52.286Z,28.90
2018-11-13T03:19:23.074Z,28.40
2018-11-13T03:21:54.371Z,27.30
2018-11-13T03:24:25.124Z,28.10
2018-11-13T03:26:56.274Z,29.67
2018-11-13T03:29:26.930Z,28.77
2018-11-13T03:31:57.679Z,27.63
2018-11-13T03:34:28.396Z,28.37
2018-11-13T03:36:59.151Z,27.10
2018-11-13T03:39:29.875Z,30.03
2018-11-13T03:42:00.895Z,29.37
2018-11-13T03:44:36.181Z,28.63
2018-11-13T03:47:07.971Z,26.63
2018-11-13T03:49:39.811Z,27.37
2018-11-13T03:52:10.627Z,28.30
2018-11-13T03:54:41.553Z,26.53
2018-11-13T03:57:12.277Z,27.23
2018-11-13T03:59:43.126Z,25.93
2018-11-13T04:02:13.867Z,27.67
2018-11-13T04:04:45.016Z,27.27
2018-11-13T04:07:15.781Z,25.90
2018-11-13T04:09:46.543Z,26.13
2018-11-13T04:12:18.395Z,25.27
2018-11-13T04:14:49.163Z,24.90
2018-11-13T04:17:19.805Z,24.33
2018-11-13T04:19:50.987Z,24.03
2018-11-13T04:22:23.161Z,23.23
2018-11-13T04:24:53.922Z,24.37
2018-11-13T04:27:24.968Z,23.17
2018-11-13T04:29:56.247Z,22.60
2018-11-13T04:32:27.087Z,25.40
2018-11-13T04:34:57.900Z,23.10
2018-11-13T04:37:28.880Z,23.37
2018-11-13T04:39:59.570Z,23.90
2018-11-13T04:42:30.587Z,24.50
2018-11-13T04:45:03.623Z,24.10
2018-11-13T04:47:34.538Z,22.83
2018-11-13T04:50:07.521Z,23.40
2018-11-13T04:52:38.316Z,23.03
2018-11-13T04:55:09.710Z,22.30
2018-11-13T04:57:41.847Z,22.60
2018-11-13T05:00:14.982Z,22.70
2018-11-13T05:02:46.547Z,20.53
2018-11-13T05:05:18.186Z,20.77
2018-11-13T05:07:50.032Z,20.60
2018-11-13T05:10:21.375Z,20.00
2018-11-13T05:26:27.233Z,18.27
2018-11-13T05:28:58.012Z,19.70
2018-11-13T05:31:28.711Z,19.17
2018-11-13T05:33:59.718Z,18.43
2018-11-13T05:36:30.498Z,18.77
2018-11-13T05:39:03.271Z,18.43
2018-11-13T05:41:33.957Z,16.87
2018-11-13T05:44:07.389Z,17.63
2018-11-13T05:46:39.514Z,16.70
2018-11-13T05:49:10.367Z,18.17
2018-11-13T05:51:41.103Z,15.60
2018-11-13T05:54:11.972Z,16.73
2018-11-13T05:56:42.701Z,15.43
2018-11-13T05:59:14.235Z,15.50
2018-11-13T06:01:45.613Z,15.23
2018-11-13T06:04:16.399Z,15.33
2018-11-13T06:06:47.997Z,14.43
2018-11-13T06:09:18.894Z,14.10
2018-11-13T06:11:49.555Z,13.73
2018-11-13T06:14:20.341Z,14.63
2018-11-13T06:16:51.002Z,13.97
2018-11-13T06:19:22.238Z,13.30
2018-11-13T06:21:53.446Z,12.13
2018-11-13T06:24:24.969Z,12.43
2018-11-13T06:26:55.682Z,13.07
2018-11-13T06:29:26.382Z,13.57
2018-11-13T06:31:57.124Z,12.60
2018-11-13T06:34:27.834Z,13.23
2018-11-13T06:36:58.533Z,12.57
2018-11-13T06:39:29.165Z,12.87
2018-11-13T06:41:59.880Z,13.27
2018-11-13T06:44:30.543Z,12.90
2018-11-13T06:47:04.931Z,12.93
2018-11-13T06:49:35.662Z,12.40
2018-11-13T06:52:07.944Z,12.70
2018-11-13T06:54:51.920Z,12.70
2018-11-13T06:57:29.317Z,11.50
2018-11-13T07:00:03.123Z,13.00
2018-11-13T07:02:33.858Z,13.20
2018-11-13T07:05:08.305Z,12.57
2018-11-13T07:07:39.140Z,13.27
2018-11-13T07:10:11.779Z,13.27
2018-11-13T07:12:44.438Z,13.73
2018-11-13T07:15:17.008Z,11.90
2018-11-13T07:17:49.412Z,11.97
2018-11-13T07:20:22.019Z,12.47
2018-11-13T07:22:52.714Z,12.47
2018-11-13T07:25:24.086Z,12.40
2018-11-13T07:27:55.311Z,11.70
2018-11-13T07:30:26.936Z,12.70
2018-11-13T07:32:57.632Z,11.23
2018-11-13T07:35:28.386Z,12.37
2018-11-13T07:38:00.115Z,11.50
2018-11-13T07:40:34.514Z,12.73
2018-11-13T07:43:07.925Z,11.20
2018-11-13T07:45:38.641Z,11.33
2018-11-13T07:48:09.803Z,11.87
2018-11-13T07:50:40.522Z,12.33
2018-11-13T07:53:11.262Z,12.07
2018-11-13T07:55:41.950Z,12.17
2018-11-13T07:58:12.660Z,11.93
2018-11-13T08:00:46.242Z,12.70
2018-11-13T08:03:26.964Z,11.50
2018-11-13T08:05:57.634Z,12.00
2018-11-13T08:08:28.493Z,13.03
2018-11-13T08:10:59.389Z,12.87
2018-11-13T08:13:30.309Z,13.40
2018-11-13T08:16:04.338Z,12.20
2018-11-13T08:18:35.070Z,12.77
2018-11-13T08:21:05.795Z,12.93
2018-11-13T08:23:36.574Z,12.77
2018-11-13T08:26:07.874Z,11.07
2018-11-13T08:28:38.655Z,9.67
2018-11-13T08:31:09.278Z,8.93
2018-11-13T08:33:40.704Z,9.30
2018-11-13T08:36:14.371Z,8.53
2018-11-13T08:38:45.454Z,8.10
2018-11-13T08:41:16.202Z,8.30
2018-11-13T08:43:47.069Z,8.57
2018-11-13T08:46:17.966Z,8.17
2018-11-13T08:48:48.654Z,8.83
2018-11-13T08:51:19.398Z,8.20
2018-11-13T08:53:50.054Z,9.23
2018-11-13T08:56:20.730Z,8.80
2018-11-13T08:58:51.429Z,7.63
2018-11-13T09:01:22.533Z,7.47
2018-11-13T09:03:54.077Z,6.30
2018-11-13T09:06:24.961Z,7.07
2018-11-13T09:08:55.663Z,6.17
2018-11-13T09:11:26.341Z,6.72
2018-11-13T09:13:58.083Z,6.12
2018-11-13T09:16:28.910Z,5.90
2018-11-13T09:18:59.751Z,5.08
2018-11-13T09:21:30.891Z,5.50
2018-11-13T09:24:05.083Z,6.60
2018-11-13T09:26:35.810Z,6.50
2018-11-13T09:29:07.575Z,6.10
2018-11-13T09:31:38.310Z,5.70
2018-11-13T09:34:10.374Z,6.50
2018-11-13T09:36:41.102Z,7.12
2018-11-13T09:39:12.999Z,5.75
2018-11-13T09:41:43.916Z,6.85
2018-11-13T09:44:14.649Z,7.20
2018-11-13T09:46:45.339Z,7.03
2018-11-13T09:49:16.011Z,7.60
2018-11-13T09:51:46.827Z,7.72
2018-11-13T09:54:17.500Z,7.67
2018-11-13T09:56:48.472Z,6.87
2018-11-13T09:59:19.339Z,7.50
2018-11-13T10:01:50.302Z,7.28
2018-11-13T10:04:21.596Z,8.35
2018-11-13T10:06:51.981Z,8.40
2018-11-13T10:09:22.645Z,8.33
2018-11-13T10:11:53.558Z,7.75
2018-11-13T10:14:24.265Z,8.00
2018-11-13T10:16:55.465Z,7.80
2018-11-13T10:19:26.199Z,8.53
2018-11-13T10:21:56.890Z,8.05
2018-11-13T10:24:27.598Z,8.80
2018-11-13T10:26:58.284Z,8.48
2018-11-13T10:29:29.008Z,8.15
2018-11-13T10:31:59.740Z,8.05
2018-11-13T10:34:30.434Z,7.80
2018-11-13T10:39:37.855Z,15.53
2018-11-13T10:42:08.611Z,13.50
2018-11-13T10:44:39.382Z,10.80
2018-11-13T10:47:10.117Z,7.75
2018-11-13T10:49:40.828Z,7.47
2018-11-13T10:52:11.922Z,9.30
2018-11-13T10:54:42.588Z,19.30
2018-11-13T10:57:14.227Z,20.10
2018-11-13T10:59:44.994Z,14.95
2018-11-13T11:02:20.842Z,7.85
2018-11-13T11:04:51.962Z,6.00
2018-11-13T11:07:22.728Z,5.62
2018-11-13T11:09:53.412Z,5.72
2018-11-13T11:12:24.172Z,6.00
2018-11-13T11:14:54.838Z,4.90
2018-11-13T11:17:25.939Z,5.22
2018-11-13T11:19:57.659Z,5.05
2018-11-13T11:22:28.539Z,4.67
2018-11-13T11:24:59.303Z,4.60
2018-11-13T11:27:30.207Z,4.90
2018-11-13T11:30:00.915Z,5.50
2018-11-13T11:32:37.447Z,5.85
2018-11-13T11:35:08.661Z,5.92
2018-11-13T11:37:40.190Z,7.08
2018-11-13T11:40:12.850Z,6.45
2018-11-13T11:42:43.517Z,6.30
2018-11-13T11:45:15.410Z,7.12
2018-11-13T11:47:46.064Z,6.70
2018-11-13T11:50:16.782Z,6.35
2018-11-13T11:52:47.471Z,5.75
2018-11-13T11:55:18.174Z,5.00
2018-11-13T11:57:49.622Z,5.67
2018-11-13T12:00:24.360Z,5.00
2018-11-13T12:02:55.469Z,6.75
2018-11-13T12:05:27.386Z,6.00
2018-11-13T12:07:58.214Z,4.85
2018-11-13T12:10:28.962Z,4.60
2018-11-13T12:12:59.716Z,4.83
2018-11-13T12:15:30.477Z,4.08
2018-11-13T12:18:07.018Z,4.03
2018-11-13T12:20:37.648Z,4.50
2018-11-13T12:23:08.349Z,3.85
2018-11-13T12:25:39.211Z,4.60
2018-11-13T12:28:09.864Z,4.83
2018-11-13T12:30:40.594Z,6.62
2018-11-13T12:33:11.262Z,5.78
2018-11-13T12:35:41.944Z,4.62
2018-11-13T12:38:12.602Z,5.12
2018-11-13T12:40:46.206Z,5.80
2018-11-13T12:43:16.941Z,5.20
2018-11-13T12:45:47.716Z,4.75
2018-11-13T12:48:18.374Z,5.92
2018-11-13T12:50:54.057Z,5.28
2018-11-13T12:53:24.860Z,5.17
2018-11-13T12:55:56.021Z,5.70
2018-11-13T12:58:28.793Z,6.28
2018-11-13T13:01:02.522Z,5.75
2018-11-13T13:03:33.652Z,5.12
2018-11-13T13:06:07.854Z,5.78
2018-11-13T13:08:38.560Z,5.90
2018-11-13T13:11:10.230Z,5.95
2018-11-13T13:13:45.374Z,6.10
2018-11-13T13:16:17.238Z,4.70
2018-11-13T13:18:48.014Z,5.67
2018-11-13T13:21:19.049Z,5.53
2018-11-13T13:23:50.307Z,5.10
2018-11-13T13:26:21.094Z,5.00
2018-11-13T13:28:52.100Z,4.78
2018-11-13T13:31:22.911Z,5.17
2018-11-13T13:33:53.882Z,4.97
2018-11-13T13:36:24.617Z,5.15
2018-11-13T13:38:55.297Z,5.42
2018-11-13T13:41:26.028Z,5.22
2018-11-13T13:43:56.795Z,4.92
2018-11-13T13:46:27.644Z,4.72
2018-11-13T13:48:58.345Z,5.22
2018-11-13T13:51:29.602Z,4.60
2018-11-13T13:54:00.341Z,4.50
2018-11-13T13:56:33.544Z,5.00
2018-11-13T13:59:06.312Z,4.05
2018-11-13T14:01:37.048Z,4.45
2018-11-13T14:04:08.146Z,5.30
2018-11-13T14:06:38.956Z,5.08
2018-11-13T14:09:11.135Z,5.03
2018-11-13T14:11:42.211Z,5.55
2018-11-13T14:14:13.125Z,5.60
2018-11-13T14:16:43.881Z,4.45
2018-11-13T14:19:14.636Z,4.05
2018-11-13T14:21:45.362Z,3.37
2018-11-13T14:24:16.082Z,3.50
2018-11-13T14:26:46.755Z,3.42
2018-11-13T14:29:17.551Z,2.92
2018-11-13T14:31:48.210Z,3.08
2018-11-13T14:34:18.881Z,2.90
2018-11-13T14:36:49.968Z,2.83
2018-11-13T14:39:20.725Z,2.90
2018-11-13T14:41:51.514Z,3.05
2018-11-13T14:44:22.173Z,2.85
2018-11-13T14:46:52.840Z,3.20
2018-11-13T14:49:23.556Z,3.10
2018-11-13T14:51:54.209Z,2.90
2018-11-13T14:54:24.909Z,3.20
2018-11-13T14:56:55.807Z,2.80
2018-11-13T14:59:26.444Z,2.40
2018-11-13T15:01:57.137Z,2.90
2018-11-13T15:04:28.022Z,3.70
2018-11-13T15:06:58.725Z,3.90
2018-11-13T15:09:29.406Z,4.05
2018-11-13T15:12:00.078Z,5.08
2018-11-13T15:14:32.809Z,4.47
2018-11-13T15:17:11.149Z,4.08
2018-11-13T15:19:41.854Z,4.53
2018-11-13T15:22:13.523Z,4.53
2018-11-13T15:24:44.273Z,4.58
2018-11-13T15:27:14.956Z,4.80
2018-11-13T15:29:45.620Z,4.95
2018-11-13T15:32:16.325Z,5.17
2018-11-13T15:34:47.151Z,5.97
2018-11-13T15:37:17.973Z,6.15
2018-11-13T15:39:48.725Z,6.55
2018-11-13T15:42:19.482Z,5.83
2018-11-13T15:44:50.251Z,6.60
2018-11-13T15:47:20.891Z,6.17
2018-11-13T15:49:51.623Z,6.58
2018-11-13T15:52:22.367Z,6.53
2018-11-13T15:54:53.074Z,7.87
2018-11-13T15:57:23.724Z,6.92
2018-11-13T15:59:54.512Z,5.85
2018-11-13T16:02:26.093Z,5.40
2018-11-13T16:04:56.771Z,6.20
2018-11-13T16:07:27.930Z,4.50
2018-11-13T16:10:00.708Z,4.90
2018-11-13T16:12:34.689Z,4.80
2018-11-13T16:15:08.314Z,4.85
2018-11-13T16:17:39.641Z,4.85
2018-11-13T16:20:10.592Z,4.28
2018-11-13T16:22:41.241Z,4.05
2018-11-13T16:25:12.341Z,6.22
2018-11-13T16:27:43.047Z,5.28
2018-11-13T16:30:16.454Z,4.92
2018-11-13T16:32:47.961Z,4.78
2018-11-13T16:35:19.475Z,4.45
2018-11-13T16:37:50.776Z,5.78
2018-11-13T16:40:25.608Z,5.45
2018-11-13T16:42:56.377Z,5.80
2018-11-13T16:45:27.926Z,7.33
2018-11-13T16:47:59.344Z,5.97
2018-11-13T16:50:32.357Z,6.80
2018-11-13T16:53:06.237Z,7.90
2018-11-13T16:55:42.268Z,7.00
2018-11-13T16:58:14.811Z,5.65
2018-11-13T17:00:45.638Z,5.67
2018-11-13T17:03:16.385Z,4.83
2018-11-13T17:05:47.123Z,5.65
2018-11-13T17:08:17.800Z,5.03
2018-11-13T17:10:49.432Z,5.70
2018-11-13T17:13:20.241Z,5.47
2018-11-13T17:15:50.951Z,6.05
2018-11-13T17:18:22.218Z,6.97
2018-11-13T17:20:53.667Z,7.90
2018-11-13T17:23:25.108Z,7.85
2018-11-13T17:25:56.074Z,7.25
2018-11-13T17:28:26.699Z,7.72
2018-11-13T17:30:57.415Z,7.62
2018-11-13T17:33:28.201Z,10.03
2018-11-13T17:35:59.429Z,7.17
2018-11-13T17:38:30.135Z,8.25
2018-11-13T17:41:05.055Z,8.28
2018-11-13T17:43:36.013Z,8.00
2018-11-13T17:46:07.173Z,11.40
2018-11-13T17:48:38.492Z,9.28
2018-11-13T17:51:09.258Z,8.00
2018-11-13T17:53:40.111Z,7.20
2018-11-13T17:56:10.763Z,7.55
2018-11-13T17:58:41.487Z,8.13
2018-11-13T18:01:12.222Z,9.98
2018-11-13T18:03:42.932Z,11.73
2018-11-13T18:06:13.653Z,12.60
2018-11-13T18:08:44.512Z,12.78
2018-11-13T18:11:15.332Z,12.43
2018-11-13T18:13:46.137Z,14.10
2018-11-13T18:16:16.820Z,13.35
2018-11-13T18:18:47.770Z,13.43
2018-11-13T18:21:19.361Z,14.58
2018-11-13T18:23:50.112Z,23.27
2018-11-13T18:26:20.830Z,25.70
2018-11-13T18:28:52.393Z,25.17
2018-11-13T18:31:24.045Z,23.95
2018-11-13T18:33:54.785Z,21.80
2018-11-13T18:36:25.507Z,18.15
2018-11-13T18:38:56.382Z,19.40
2018-11-13T18:41:27.259Z,17.82
2018-11-13T18:43:58.162Z,18.70
2018-11-13T18:46:29.013Z,17.10
2018-11-13T18:48:59.688Z,17.55
2018-11-13T18:51:30.425Z,17.95
2018-11-13T18:54:05.048Z,21.07
2018-11-13T18:56:36.802Z,20.32
2018-11-13T18:59:09.225Z,18.27
2018-11-13T19:01:40.319Z,24.07
2018-11-13T19:04:11.105Z,24.60
2018-11-13T19:06:41.837Z,23.60
2018-11-13T19:09:13.271Z,23.45
2018-11-13T19:11:44.252Z,23.98
2018-11-13T19:14:15.122Z,23.55
2018-11-13T19:16:45.905Z,24.57
2018-11-13T19:19:16.647Z,31.85
2018-11-13T19:21:47.610Z,28.05
2018-11-13T19:24:18.555Z,30.32
2018-11-13T19:26:50.161Z,31.23
2018-11-13T19:29:20.941Z,27.50
2018-11-13T19:31:51.698Z,27.17
2018-11-13T19:34:22.793Z,26.42
2018-11-13T19:36:54.363Z,22.48
2018-11-13T19:39:25.737Z,19.48
2018-11-13T19:41:58.196Z,17.32
2018-11-13T19:44:29.347Z,17.23
2018-11-13T19:47:00.149Z,21.15
2018-11-13T19:49:35.485Z,35.45
2018-11-13T19:52:08.435Z,33.30
2018-11-13T19:54:39.450Z,30.60
2018-11-13T19:57:10.333Z,22.40
2018-11-13T19:59:41.132Z,26.15
2018-11-13T20:02:11.896Z,25.92
2018-11-13T20:04:43.830Z,34.58
2018-11-13T20:07:14.962Z,32.23
2018-11-13T20:09:46.482Z,24.50
2018-11-13T20:12:18.534Z,24.90
2018-11-13T20:14:49.359Z,24.52
2018-11-13T20:17:20.616Z,26.00
2018-11-13T20:19:51.593Z,25.52
2018-11-13T20:22:22.362Z,26.77
2018-11-13T20:24:54.571Z,27.55
2018-11-13T20:27:25.376Z,28.65
2018-11-13T20:29:56.113Z,27.37
2018-11-13T20:32:26.834Z,28.83
2018-11-13T20:34:57.621Z,30.90
2018-11-13T20:37:28.362Z,28.92
2018-11-13T20:39:59.866Z,33.42
2018-11-13T20:42:30.546Z,33.23
2018-11-13T20:45:02.396Z,32.80
2018-11-13T20:47:33.262Z,30.70
2018-11-13T20:50:05.901Z,28.80
2018-11-13T20:52:36.883Z,30.75
2018-11-13T20:55:08.168Z,29.98
2018-11-13T20:57:39.369Z,28.25
2018-11-13T21:00:16.103Z,26.93
2018-11-13T21:02:47.228Z,29.67
2018-11-13T21:05:18.737Z,36.17
2018-11-13T21:07:49.638Z,34.20
2018-11-13T21:10:23.202Z,37.95
2018-11-13T21:12:54.119Z,37.87
2018-11-13T21:15:24.920Z,31.33
2018-11-13T21:17:55.741Z,45.27
2018-11-13T21:20:26.717Z,31.20
2018-11-13T21:22:58.519Z,32.90
2018-11-13T21:25:29.953Z,33.42
2018-11-13T21:28:03.234Z,29.30
2018-11-13T21:30:35.549Z,31.43
2018-11-13T21:33:12.549Z,74.20
2018-11-13T21:35:43.768Z,82.92
2018-11-13T21:38:15.141Z,41.23
2018-11-13T21:40:45.932Z,38.93
2018-11-13T21:43:17.246Z,31.40
2018-11-13T21:45:47.968Z,32.45
2018-11-13T21:48:18.747Z,30.33
2018-11-13T21:50:49.490Z,34.30
2018-11-13T21:53:20.227Z,33.80
2018-11-13T21:55:51.015Z,33.07
2018-11-13T21:58:22.401Z,33.10
2018-11-13T22:00:53.963Z,30.83
2018-11-13T22:03:25.266Z,34.13
2018-11-13T22:05:55.962Z,34.27
2018-11-13T22:08:33.609Z,31.40
2018-11-13T22:11:14.834Z,30.40
2018-11-13T22:13:54.267Z,31.07
2018-11-13T22:16:43.711Z,33.53
2018-11-13T22:19:26.619Z,38.43
2018-11-13T22:22:12.506Z,34.92
2018-11-13T22:24:55.050Z,34.97
2018-11-13T22:27:40.442Z,35.63
2018-11-13T22:30:20.681Z,37.20
2018-11-13T22:33:04.978Z,40.50
2018-11-13T22:35:47.015Z,42.77
2018-11-13T22:38:29.806Z,49.50
2018-11-13T22:44:08.211Z,46.93
2018-11-13T22:46:55.435Z,40.93
2018-11-13T22:49:44.725Z,36.90
2018-11-13T22:52:37.520Z,36.40
2018-11-13T22:55:27.012Z,37.10
2018-11-13T22:58:10.240Z,35.77
2018-11-13T23:00:57.628Z,38.23
2018-11-13T23:03:37.384Z,36.77
2018-11-13T23:06:08.957Z,36.73
2018-11-13T23:08:48.887Z,39.60
2018-11-13T23:11:30.927Z,35.70
2018-11-13T23:14:09.013Z,37.80
2018-11-13T23:16:41.908Z,39.40
2018-11-13T23:19:12.685Z,38.40
2018-11-13T23:21:43.445Z,38.87
2018-11-13T23:24:14.193Z,37.53
2018-11-13T23:26:45.062Z,35.87
2018-11-13T23:29:15.758Z,37.17
2018-11-13T23:31:46.662Z,32.43
2018-11-13T23:34:17.864Z,33.07
2018-11-13T23:36:48.675Z,35.03
2018-11-13T23:39:19.462Z,36.90
2018-11-13T23:42:06.838Z,30.67
2018-11-13T23:44:37.390Z,30.93
2018-11-13T23:47:08.910Z,32.73
2018-11-13T23:49:40.419Z,33.80
2018-11-13T23:52:10.994Z,34.13
2018-11-13T23:54:42.559Z,35.70
2018-11-13T23:57:13.478Z,36.50
2018-11-13T23:59:44.315Z,35.23
